Edgewater, Colorado
Current Conditions -  °F | °C
As of 8:45 AM on Wednesday 22 Oct 2014 (Local Time) from KBJC Reporting Station
Broken Clouds Broken Clouds  
Wind Chill: 57°   Ceiling: 18000
Heat Index: 57°   Visibility: 70mi
Dew Point: 39°   Wind: 6mph
Humidity: 51%   Direction: 210°SSW
Pressure: 30.1"   Gusts: NA
Location:  39.7434°N, 105.062°W
Report Text: KBJC 221445Z 21005KT 70SM FEW080 SCT120 BKN180 14/04 A3010
Loading
Personal Weather Stations






























Interactive Weather Map
Tropical Storm Tracking
New forecast layout! Learn more

10-Day Weather Forecast

Advertisements
Track Severe Weather on mobile